createdAt,value
2022-11-20T00:01:34.938Z,-0.88
2022-11-20T00:04:05.013Z,-0.64
2022-11-20T00:06:33.556Z,-0.72
2022-11-20T00:09:02.636Z,-0.74
2022-11-20T00:11:32.779Z,-0.73
2022-11-20T00:14:03.525Z,-0.65
2022-11-20T00:16:33.989Z,-0.64
2022-11-20T00:19:02.519Z,-1.02
2022-11-20T00:21:32.822Z,-0.88
2022-11-20T00:24:01.320Z,-1.54
2022-11-20T00:26:30.022Z,-1.46
2022-11-20T00:28:59.911Z,-1.21
2022-11-20T00:31:29.106Z,-1.14
2022-11-20T00:33:58.041Z,-0.84
2022-11-20T00:36:28.273Z,-0.83
2022-11-20T00:38:59.454Z,-0.98
2022-11-20T00:41:29.274Z,-0.83
2022-11-20T00:43:58.077Z,-0.97
2022-11-20T00:46:28.306Z,-0.98
2022-11-20T00:48:57.136Z,-1.14
2022-11-20T00:51:27.109Z,-0.80
2022-11-20T00:53:59.027Z,-1.14
2022-11-20T00:56:27.881Z,-1.18
2022-11-20T00:58:56.375Z,-1.27
2022-11-20T01:01:26.683Z,-1.49
2022-11-20T01:03:57.371Z,-1.12
2022-11-20T01:06:27.557Z,-0.83
2022-11-20T01:08:59.154Z,-0.75
2022-11-20T01:11:29.542Z,-0.79
2022-11-20T01:13:59.501Z,-1.48
2022-11-20T01:16:30.187Z,-0.79
2022-11-20T01:19:01.258Z,-0.91
2022-11-20T01:21:31.788Z,-1.10
2022-11-20T01:24:02.707Z,-0.92
2022-11-20T01:26:33.175Z,-0.55
2022-11-20T01:29:02.683Z,-0.79
2022-11-20T01:31:32.754Z,-1.15
2022-11-20T01:34:02.813Z,-1.43
2022-11-20T01:36:32.743Z,-1.29
2022-11-20T01:39:06.012Z,-1.27
2022-11-20T01:41:53.777Z,-1.06
2022-11-20T01:44:24.249Z,-0.94
2022-11-20T01:46:59.976Z,-1.09
2022-11-20T01:49:36.679Z,-0.92
2022-11-20T01:52:09.751Z,-0.64
2022-11-20T01:54:45.815Z,-0.78
2022-11-20T01:57:16.139Z,-1.31
2022-11-20T01:59:50.255Z,-1.21
2022-11-20T02:02:22.302Z,-1.14
2022-11-20T02:04:54.123Z,-1.04
2022-11-20T02:07:23.336Z,-0.83
2022-11-20T02:09:57.485Z,-0.84
2022-11-20T02:12:44.597Z,-0.78
2022-11-20T02:15:35.467Z,-1.09
2022-11-20T02:18:04.161Z,-0.94
2022-11-20T02:20:32.267Z,-0.70
2022-11-20T02:23:07.170Z,-1.05
2022-11-20T02:25:39.204Z,-0.97
2022-11-20T02:28:08.272Z,-1.10
2022-11-20T02:30:36.670Z,-1.16
2022-11-20T02:33:05.096Z,-1.24
2022-11-20T02:35:47.393Z,-1.15
2022-11-20T02:38:17.146Z,-0.87
2022-11-20T02:40:54.087Z,-0.74
2022-11-20T02:43:23.943Z,-0.46
2022-11-20T02:45:52.364Z,-0.36
2022-11-20T02:48:20.745Z,-0.29
2022-11-20T02:50:49.142Z,-0.88
2022-11-20T02:53:17.549Z,-0.65
2022-11-20T02:55:47.356Z,-0.36
2022-11-20T02:58:15.824Z,-0.17
2022-11-20T03:00:44.222Z,-0.52
2022-11-20T03:03:12.596Z,-0.93
2022-11-20T03:05:41.038Z,-0.74
2022-11-20T03:08:09.614Z,-0.90
2022-11-20T03:10:37.774Z,-0.64
2022-11-20T03:13:07.645Z,-0.61
2022-11-20T03:15:37.683Z,-0.64
2022-11-20T03:18:06.541Z,-0.91
2022-11-20T03:20:35.952Z,-0.74
2022-11-20T03:23:05.006Z,-0.70
2022-11-20T03:25:33.502Z,-1.17
2022-11-20T03:28:01.867Z,-0.53
2022-11-20T03:30:31.730Z,-0.48
2022-11-20T03:33:00.233Z,-0.83
2022-11-20T03:35:28.658Z,-0.74
2022-11-20T03:37:57.178Z,-0.76
2022-11-20T03:40:28.198Z,-0.90
2022-11-20T03:42:57.028Z,-0.64
2022-11-20T03:45:27.511Z,-0.32
2022-11-20T03:47:57.371Z,-0.94
2022-11-20T03:50:28.973Z,-0.59
2022-11-20T03:52:57.393Z,-0.49
2022-11-20T03:55:25.779Z,-0.39
2022-11-20T03:57:54.290Z,-0.52
2022-11-20T04:00:22.691Z,-0.47
2022-11-20T04:02:53.401Z,-0.14
2022-11-20T04:05:23.337Z,-0.23
2022-11-20T04:07:51.875Z,0.03
2022-11-20T04:10:20.425Z,0.04
2022-11-20T04:12:48.612Z,-0.12
2022-11-20T04:15:17.606Z,-0.68
2022-11-20T04:17:45.965Z,-1.21
2022-11-20T04:20:14.546Z,-0.59
2022-11-20T04:22:44.470Z,-0.79
2022-11-20T04:25:13.071Z,-0.86
2022-11-20T04:27:41.140Z,-0.74
2022-11-20T04:30:10.786Z,-0.59
2022-11-20T04:32:40.066Z,-0.54
2022-11-20T04:35:08.973Z,-0.36
2022-11-20T04:37:37.466Z,-0.98
2022-11-20T04:40:08.498Z,-0.50
2022-11-20T04:42:36.960Z,-0.50
2022-11-20T04:45:05.801Z,-0.10
2022-11-20T04:47:34.191Z,-0.83
2022-11-20T04:50:02.616Z,-0.54
2022-11-20T04:52:32.036Z,-0.79
2022-11-20T04:55:00.553Z,-0.40
2022-11-20T04:57:30.395Z,-0.22
2022-11-20T04:59:58.958Z,-0.22
2022-11-20T05:02:27.134Z,-0.19
2022-11-20T05:04:55.543Z,-0.68
2022-11-20T05:07:24.060Z,-0.19
2022-11-20T05:09:52.472Z,-0.13
2022-11-20T05:12:20.948Z,-1.05
2022-11-20T05:14:50.730Z,-0.63
2022-11-20T05:17:19.259Z,-1.03
2022-11-20T05:19:52.875Z,-0.90
2022-11-20T05:22:21.669Z,-0.91
2022-11-20T05:24:50.139Z,-0.77
2022-11-20T05:27:18.612Z,-0.40
2022-11-20T05:29:47.024Z,0.11
2022-11-20T05:32:16.923Z,-0.37
2022-11-20T05:34:45.323Z,-0.05
2022-11-20T05:37:13.699Z,-0.29
2022-11-20T05:39:42.084Z,-0.72
2022-11-20T05:42:28.131Z,-0.67
2022-11-20T05:44:56.610Z,-0.56
2022-11-20T05:47:26.671Z,-0.61
2022-11-20T05:49:55.252Z,-0.24
2022-11-20T05:52:23.812Z,-0.31
2022-11-20T05:54:52.312Z,-0.98
2022-11-20T05:57:20.725Z,-0.77
2022-11-20T05:59:49.229Z,-0.60
2022-11-20T06:02:17.807Z,-1.22
2022-11-20T06:04:47.372Z,-0.55
2022-11-20T06:07:15.873Z,-0.34
2022-11-20T06:09:44.330Z,-1.10
2022-11-20T06:12:12.813Z,-0.58
2022-11-20T06:14:41.224Z,-0.74
2022-11-20T06:17:09.679Z,-0.53
2022-11-20T06:19:38.154Z,-0.03
2022-11-20T06:22:08.119Z,-0.17
2022-11-20T06:24:36.613Z,0.11
2022-11-20T06:27:05.384Z,-0.49
2022-11-20T06:29:34.294Z,-1.00
2022-11-20T06:32:02.941Z,-1.09
2022-11-20T06:34:31.088Z,-0.68
2022-11-20T06:36:59.547Z,-1.19
2022-11-20T06:39:29.330Z,-0.04
2022-11-20T06:41:59.218Z,-0.35
2022-11-20T06:44:28.265Z,0.05
2022-11-20T06:46:56.667Z,-0.55
2022-11-20T06:49:26.256Z,-0.09
2022-11-20T06:51:54.877Z,-0.20
2022-11-20T06:54:23.930Z,0.49
2022-11-20T06:56:53.704Z,0.91
2022-11-20T06:59:22.643Z,0.49
2022-11-20T07:01:51.558Z,-0.39
2022-11-20T07:04:19.986Z,-0.06
2022-11-20T07:06:48.432Z,0.15
2022-11-20T07:09:17.459Z,-0.76
2022-11-20T07:11:45.877Z,-1.15
2022-11-20T07:14:15.797Z,-0.44
2022-11-20T07:16:44.390Z,-0.62
2022-11-20T07:19:12.640Z,-0.97
2022-11-20T07:21:41.086Z,-1.58
2022-11-20T07:24:09.590Z,-0.85
2022-11-20T07:26:38.063Z,-1.29
2022-11-20T07:29:06.762Z,-0.97
2022-11-20T07:31:36.828Z,-0.48
2022-11-20T07:34:05.812Z,-0.30
2022-11-20T07:36:34.265Z,-0.04
2022-11-20T07:39:02.915Z,-0.01
2022-11-20T07:41:32.645Z,0.12
2022-11-20T07:44:01.447Z,0.52
2022-11-20T07:46:30.022Z,-0.81
2022-11-20T07:48:59.904Z,-0.08
2022-11-20T07:51:28.486Z,0.12
2022-11-20T07:53:56.591Z,-0.12
2022-11-20T07:56:57.190Z,0.38
2022-11-20T07:59:26.214Z,-0.28
2022-11-20T08:01:55.958Z,-0.46
2022-11-20T08:04:26.040Z,0.12
2022-11-20T08:06:54.718Z,0.17
2022-11-20T08:09:23.458Z,0.68
2022-11-20T08:12:28.828Z,0.51
2022-11-20T08:15:41.246Z,-0.74
2022-11-20T08:18:33.401Z,-1.16
2022-11-20T08:21:06.262Z,-0.64
2022-11-20T08:23:34.887Z,-0.38
2022-11-20T08:26:03.018Z,0.47
2022-11-20T08:28:31.469Z,-0.77
2022-11-20T08:31:03.623Z,0.31
2022-11-20T08:33:33.703Z,-0.45
2022-11-20T08:36:03.210Z,-0.53
2022-11-20T08:38:33.783Z,0.23
2022-11-20T08:41:20.497Z,0.36
2022-11-20T08:43:49.005Z,0.54
2022-11-20T08:46:17.465Z,1.12
2022-11-20T08:48:46.500Z,-0.08
2022-11-20T08:51:15.595Z,-0.40
2022-11-20T08:53:45.608Z,0.10
2022-11-20T08:56:14.478Z,0.30
2022-11-20T08:59:10.324Z,-0.07
2022-11-20T09:01:31.861Z,0.19
2022-11-20T09:04:00.993Z,0.69
2022-11-20T09:06:29.636Z,0.18
2022-11-20T09:09:03.503Z,-0.27
2022-11-20T09:11:34.917Z,-0.41
2022-11-20T09:14:03.919Z,0.11
2022-11-20T09:16:32.394Z,-0.37
2022-11-20T09:19:34.060Z,-0.26
2022-11-20T09:21:49.648Z,-0.12
2022-11-20T09:24:24.181Z,0.62
2022-11-20T09:26:55.466Z,0.38
2022-11-20T09:29:25.281Z,-0.34
2022-11-20T09:31:53.928Z,-0.42
2022-11-20T09:34:22.190Z,-0.49
2022-11-20T09:36:50.725Z,-0.43
2022-11-20T09:39:21.594Z,0.02
2022-11-20T09:42:05.774Z,-0.03
2022-11-20T09:45:11.152Z,0.36
2022-11-20T09:47:52.845Z,-0.38
2022-11-20T09:50:32.042Z,-0.51
2022-11-20T09:53:16.120Z,-0.28
2022-11-20T09:55:49.294Z,-0.70
2022-11-20T09:58:30.509Z,0.17
2022-11-20T10:01:03.185Z,-0.28
2022-11-20T10:03:42.939Z,-0.34
2022-11-20T10:06:15.960Z,0.08
2022-11-20T10:08:47.597Z,-0.12
2022-11-20T10:11:27.746Z,-0.54
2022-11-20T10:14:09.444Z,-0.41
2022-11-20T10:16:48.757Z,-0.24
2022-11-20T10:19:33.141Z,-0.40
2022-11-20T10:22:12.181Z,-0.21
2022-11-20T10:24:47.073Z,0.27
2022-11-20T10:27:35.061Z,0.30
2022-11-20T10:30:05.888Z,0.18
2022-11-20T10:32:40.037Z,0.75
2022-11-20T10:35:21.312Z,-0.30
2022-11-20T10:37:55.635Z,-0.50
2022-11-20T10:40:34.886Z,-0.57
2022-11-20T10:43:14.432Z,-0.51
2022-11-20T10:45:53.317Z,-0.45
2022-11-20T10:48:24.625Z,-0.14
2022-11-20T10:51:06.157Z,0.32
2022-11-20T10:53:47.756Z,0.06
2022-11-20T10:56:22.532Z,0.21
2022-11-20T10:59:03.306Z,-0.06
2022-11-20T11:01:31.847Z,-0.18
2022-11-20T11:04:01.203Z,-0.34
2022-11-20T11:06:37.685Z,0.02
2022-11-20T11:09:14.154Z,0.16
2022-11-20T11:11:42.662Z,0.07
2022-11-20T11:14:16.408Z,-0.12
2022-11-20T11:16:53.043Z,0.09
2022-11-20T11:19:22.148Z,0.25
2022-11-20T11:21:55.842Z,0.24
2022-11-20T11:24:41.652Z,-0.10
2022-11-20T11:27:17.528Z,-0.11
2022-11-20T11:29:47.941Z,-0.38
2022-11-20T11:32:18.291Z,-0.52
2022-11-20T11:34:47.181Z,-0.53
2022-11-20T11:37:22.632Z,-0.41
2022-11-20T11:40:03.957Z,-0.73
2022-11-20T11:42:45.069Z,-0.74
2022-11-20T11:45:18.455Z,-0.70
2022-11-20T11:47:49.806Z,-0.53
2022-11-20T11:50:22.245Z,-0.43
2022-11-20T11:52:58.791Z,-0.58
2022-11-20T11:55:36.000Z,-0.60
2022-11-20T11:58:16.744Z,-0.66
2022-11-20T12:00:57.788Z,-0.52
2022-11-20T12:03:31.731Z,-0.38
2022-11-20T12:06:05.198Z,-0.24
2022-11-20T12:08:39.666Z,-0.41
2022-11-20T12:11:15.890Z,-0.54
2022-11-20T12:13:51.037Z,-0.54
2022-11-20T12:16:22.883Z,-0.20
2022-11-20T12:18:54.461Z,-0.11
2022-11-20T12:21:30.599Z,-0.36
2022-11-20T12:24:17.996Z,0.31
2022-11-20T12:26:58.993Z,-0.02
2022-11-20T12:29:37.692Z,-0.37
2022-11-20T12:32:33.857Z,-0.42
2022-11-20T12:35:13.780Z,-0.54
2022-11-20T12:37:54.525Z,-0.54
2022-11-20T12:40:35.387Z,-0.43
2022-11-20T12:43:30.802Z,-0.27
2022-11-20T12:46:15.895Z,-0.54
2022-11-20T12:49:06.029Z,-0.69
2022-11-20T12:51:50.767Z,-0.10
2022-11-20T12:54:44.525Z,-0.43
2022-11-20T12:57:20.801Z,-0.11
2022-11-20T13:00:15.027Z,-0.04
2022-11-20T13:03:15.000Z,-0.34
2022-11-20T13:06:02.454Z,-0.78
2022-11-20T13:08:35.199Z,-0.67
2022-11-20T13:11:12.426Z,-0.60
2022-11-20T13:13:50.103Z,-0.56
2022-11-20T13:16:27.250Z,-0.42
2022-11-20T13:18:56.059Z,-0.27
2022-11-20T13:21:38.983Z,-0.37
2022-11-20T13:24:08.317Z,-0.58
2022-11-20T13:26:36.920Z,-0.58
2022-11-20T13:29:07.702Z,-0.06
2022-11-20T13:31:39.579Z,-0.28
2022-11-20T13:34:16.104Z,-0.32
2022-11-20T13:36:54.363Z,-0.33
2022-11-20T13:39:29.723Z,0.23
2022-11-20T13:41:59.443Z,0.01
2022-11-20T13:44:32.026Z,-0.41
2022-11-20T13:47:09.905Z,-0.42
2022-11-20T13:49:45.351Z,-0.46
2022-11-20T13:52:42.093Z,-0.17
2022-11-20T13:55:44.988Z,-0.76
2022-11-20T13:58:38.550Z,-0.38
2022-11-20T14:01:17.641Z,-0.22
2022-11-20T14:06:47.334Z,-0.44
2022-11-20T14:09:29.006Z,-0.37
2022-11-20T14:11:58.312Z,-0.62
2022-11-20T14:14:28.592Z,-0.40
2022-11-20T14:17:08.345Z,-0.49
2022-11-20T14:19:38.266Z,-0.55
2022-11-20T14:22:13.313Z,-0.49
2022-11-20T14:24:43.367Z,-0.68
2022-11-20T14:27:16.779Z,-0.89
2022-11-20T14:29:47.062Z,-0.88
2022-11-20T14:32:18.619Z,-0.79
2022-11-20T14:34:49.500Z,-0.86
2022-11-20T14:37:22.868Z,-0.90
2022-11-20T14:39:55.357Z,-0.83
2022-11-20T14:42:26.231Z,-0.84
2022-11-20T14:44:57.765Z,-0.45
2022-11-20T14:47:29.210Z,-0.26
2022-11-20T14:49:59.524Z,-0.58
2022-11-20T14:52:29.538Z,-0.19
2022-11-20T14:55:01.156Z,-0.16
2022-11-20T14:57:34.316Z,-0.13
2022-11-20T15:00:18.183Z,-0.32
2022-11-20T15:02:51.527Z,-0.42
2022-11-20T15:05:21.833Z,-0.16
2022-11-20T15:07:52.167Z,-0.38
2022-11-20T15:10:27.387Z,-0.27
2022-11-20T15:12:58.035Z,-0.21
2022-11-20T15:15:32.399Z,-0.27
2022-11-20T15:18:01.699Z,-0.26
2022-11-20T15:20:33.195Z,-0.29
2022-11-20T15:23:01.930Z,-0.32
2022-11-20T15:25:31.848Z,-0.53
2022-11-20T15:28:00.323Z,-0.51
2022-11-20T15:30:28.704Z,-0.63
2022-11-20T15:32:57.135Z,-0.70
2022-11-20T15:35:25.678Z,-0.48
2022-11-20T15:37:54.647Z,-0.58
2022-11-20T15:40:23.026Z,-0.33
2022-11-20T15:43:09.929Z,-0.36
2022-11-20T15:45:44.007Z,-0.43
2022-11-20T15:48:16.585Z,-0.19
2022-11-20T15:50:53.145Z,-0.07
2022-11-20T15:53:21.788Z,-0.12
2022-11-20T15:55:50.451Z,0.10
2022-11-20T15:58:20.283Z,0.27
2022-11-20T16:00:49.947Z,0.15
2022-11-20T16:03:19.995Z,0.36
2022-11-20T16:05:49.090Z,0.83
2022-11-20T16:08:18.678Z,0.65
2022-11-20T16:10:54.677Z,-0.14
2022-11-20T16:13:42.315Z,-0.44
2022-11-20T16:16:20.925Z,-0.56
2022-11-20T16:18:49.594Z,-0.56
2022-11-20T16:21:18.383Z,-0.70
2022-11-20T16:23:46.839Z,-0.85
2022-11-20T16:26:16.962Z,-0.39
2022-11-20T16:28:47.103Z,-0.45
2022-11-20T16:31:17.690Z,-0.28
2022-11-20T16:33:52.043Z,-0.45
2022-11-20T16:36:22.394Z,-0.53
2022-11-20T16:38:54.737Z,-0.38
2022-11-20T16:41:23.374Z,-0.45
2022-11-20T16:43:55.018Z,-0.60
2022-11-20T16:46:24.854Z,-0.49
2022-11-20T16:48:57.616Z,-0.78
2022-11-20T16:51:27.233Z,-0.33
2022-11-20T16:53:56.468Z,0.27
2022-11-20T16:56:26.832Z,-0.03
2022-11-20T16:58:58.649Z,-0.08
2022-11-20T17:01:29.212Z,-0.22
2022-11-20T17:03:59.489Z,-0.10
2022-11-20T17:06:30.061Z,0.14
2022-11-20T17:08:59.553Z,0.45
2022-11-20T17:11:28.897Z,0.15
2022-11-20T17:14:00.661Z,-0.24
2022-11-20T17:16:29.573Z,-0.43
2022-11-20T17:19:03.408Z,-0.50
2022-11-20T17:21:33.056Z,-0.26
2022-11-20T17:24:03.719Z,-0.75
2022-11-20T17:26:32.218Z,-0.83
2022-11-20T17:29:03.865Z,-0.77
2022-11-20T17:31:34.884Z,-0.79
2022-11-20T17:34:03.673Z,-0.43
2022-11-20T17:36:32.275Z,0.49
2022-11-20T17:39:00.773Z,0.70
2022-11-20T17:41:29.948Z,0.72
2022-11-20T17:44:00.354Z,0.25
2022-11-20T17:46:32.878Z,0.22
2022-11-20T17:49:02.307Z,0.09
2022-11-20T17:51:32.219Z,-0.24
2022-11-20T17:54:03.013Z,-0.23
2022-11-20T17:56:53.767Z,-0.20
2022-11-20T17:59:24.239Z,-0.14
2022-11-20T18:01:55.553Z,-0.12
2022-11-20T18:04:26.387Z,-0.05
2022-11-20T18:06:54.983Z,0.18
2022-11-20T18:09:23.417Z,0.32
2022-11-20T18:11:52.015Z,0.63
2022-11-20T18:14:34.621Z,0.89
2022-11-20T18:17:06.658Z,0.68
2022-11-20T18:19:41.130Z,-0.08
2022-11-20T18:22:17.605Z,0.06
2022-11-20T18:24:46.375Z,-0.14
2022-11-20T18:27:16.549Z,0.18
2022-11-20T18:29:46.610Z,-0.14
2022-11-20T18:32:16.644Z,0.04
2022-11-20T18:34:45.150Z,-0.11
2022-11-20T18:37:15.661Z,-0.23
2022-11-20T18:39:46.538Z,-0.29
2022-11-20T18:42:34.286Z,-0.41
2022-11-20T18:45:04.593Z,-0.10
2022-11-20T18:47:38.099Z,0.13
2022-11-20T18:50:08.717Z,0.41
2022-11-20T18:52:44.672Z,1.00
2022-11-20T18:55:14.210Z,1.15
2022-11-20T18:57:42.683Z,0.17
2022-11-20T19:00:12.209Z,0.55
2022-11-20T19:02:43.630Z,0.38
2022-11-20T19:05:12.897Z,0.96
2022-11-20T19:07:41.649Z,1.14
2022-11-20T19:10:10.758Z,0.28
2022-11-20T19:12:39.213Z,-0.23
2022-11-20T19:15:08.451Z,-0.22
2022-11-20T19:17:37.001Z,-0.42
2022-11-20T19:20:07.809Z,-0.12
2022-11-20T19:22:36.251Z,-0.05
2022-11-20T19:25:05.203Z,0.10
2022-11-20T19:27:33.746Z,0.07
2022-11-20T19:30:03.778Z,0.05
2022-11-20T19:32:35.423Z,0.63
2022-11-20T19:35:04.814Z,-0.31
2022-11-20T19:37:36.085Z,-0.20
2022-11-20T19:40:05.579Z,-0.37
2022-11-20T19:42:34.163Z,0.10
2022-11-20T19:45:02.619Z,0.09
2022-11-20T19:48:05.910Z,0.38
2022-11-20T19:50:21.706Z,-0.15
2022-11-20T19:52:57.236Z,-0.71
2022-11-20T19:55:27.391Z,-0.85
2022-11-20T19:57:58.419Z,-0.84
2022-11-20T20:00:32.305Z,-0.65
2022-11-20T20:03:01.322Z,-0.42
2022-11-20T20:05:29.801Z,-0.49
2022-11-20T20:07:59.477Z,-0.35
2022-11-20T20:10:29.615Z,-0.65
2022-11-20T20:12:58.420Z,-0.54
2022-11-20T20:15:27.245Z,-0.95
2022-11-20T20:17:56.173Z,-0.56
2022-11-20T20:20:25.015Z,-0.45
2022-11-20T20:22:53.508Z,-0.05
2022-11-20T20:25:23.336Z,-0.48
2022-11-20T20:27:51.779Z,-0.52
2022-11-20T20:30:20.288Z,0.10
2022-11-20T20:32:53.310Z,0.07
2022-11-20T20:35:24.600Z,-0.01
2022-11-20T20:37:52.891Z,0.17
2022-11-20T20:40:22.725Z,0.22
2022-11-20T20:42:51.181Z,-0.16
2022-11-20T20:45:19.555Z,0.02
2022-11-20T20:47:47.998Z,0.12
2022-11-20T20:50:16.769Z,-0.03
2022-11-20T20:52:45.848Z,-0.11
2022-11-20T20:55:14.348Z,0.49
2022-11-20T20:57:43.974Z,1.03
2022-11-20T21:00:13.086Z,0.40
2022-11-20T21:02:41.577Z,0.02
2022-11-20T21:05:10.999Z,-0.27
2022-11-20T21:07:59.571Z,0.47
2022-11-20T21:10:28.186Z,0.51
2022-11-20T21:12:58.112Z,0.24
2022-11-20T21:15:26.572Z,0.67
2022-11-20T21:17:55.046Z,1.01
2022-11-20T21:20:41.304Z,0.75
2022-11-20T21:23:11.096Z,0.69
2022-11-20T21:25:40.401Z,0.52
2022-11-20T21:28:14.369Z,0.64
2022-11-20T21:30:45.851Z,0.05
2022-11-20T21:33:14.529Z,0.08
2022-11-20T21:35:42.660Z,0.22
2022-11-20T21:38:11.106Z,0.05
2022-11-20T21:40:39.501Z,-0.46
2022-11-20T21:43:09.359Z,0.03
2022-11-20T21:45:37.922Z,0.17
2022-11-20T21:48:07.199Z,0.14
2022-11-20T21:50:36.260Z,0.19
2022-11-20T21:53:04.751Z,-0.14
2022-11-20T21:55:33.220Z,0.25
2022-11-20T21:58:01.630Z,0.28
2022-11-20T22:00:31.613Z,-0.09
2022-11-20T22:03:00.133Z,-0.03
2022-11-20T22:05:28.561Z,-0.08
2022-11-20T22:07:57.030Z,-0.18
2022-11-20T22:10:25.703Z,-0.02
2022-11-20T22:13:14.593Z,0.81
2022-11-20T22:15:59.943Z,1.16
2022-11-20T22:18:29.642Z,0.70
2022-11-20T22:20:58.123Z,0.34
2022-11-20T22:23:26.769Z,0.50
2022-11-20T22:25:55.023Z,0.54
2022-11-20T22:28:23.457Z,0.35
2022-11-20T22:30:53.276Z,0.12
2022-11-20T22:33:21.692Z,0.34
2022-11-20T22:35:50.196Z,0.83
2022-11-20T22:38:18.711Z,0.24
2022-11-20T22:40:48.648Z,-0.31
2022-11-20T22:43:17.221Z,-0.49
2022-11-20T22:45:46.620Z,-0.07
2022-11-20T22:48:16.485Z,0.48
2022-11-20T22:50:45.318Z,0.27
2022-11-20T22:53:13.755Z,0.54
2022-11-20T22:55:42.152Z,0.09
2022-11-20T22:58:10.504Z,-0.12
2022-11-20T23:00:38.938Z,-0.51
2022-11-20T23:03:07.405Z,-0.58
2022-11-20T23:05:37.178Z,-0.49
2022-11-20T23:08:06.002Z,-0.32
2022-11-20T23:10:34.442Z,-0.92
2022-11-20T23:13:02.858Z,-0.43
2022-11-20T23:15:31.319Z,-0.13
2022-11-20T23:17:59.783Z,0.19
2022-11-20T23:20:28.179Z,0.42
2022-11-20T23:22:57.963Z,-0.23
2022-11-20T23:25:26.411Z,-0.88
2022-11-20T23:27:55.465Z,-1.33
2022-11-20T23:30:23.857Z,-0.88
2022-11-20T23:32:52.285Z,0.07
2022-11-20T23:35:20.806Z,-0.39
2022-11-20T23:37:48.877Z,-0.30
2022-11-20T23:40:18.962Z,-0.17
2022-11-20T23:43:01.217Z,-0.08
2022-11-20T23:45:29.723Z,-0.34
2022-11-20T23:47:58.694Z,-0.70
2022-11-20T23:50:27.063Z,-0.65
2022-11-20T23:52:55.472Z,-0.08
2022-11-20T23:55:25.319Z,0.08
2022-11-20T23:57:53.788Z,0.18
